sensor_id;sensor_type;location;lat;lon;timestamp;P1;durP1;ratioP1;P2;durP2;ratioP2
40116;SDS011;25829;50.228;18.936;2022-12-18T00:01:19;29.97;;;16.10;;
40116;SDS011;25829;50.228;18.936;2022-12-18T00:04:25;36.33;;;16.60;;
40116;SDS011;25829;50.228;18.936;2022-12-18T00:07:26;32.53;;;16.53;;
40116;SDS011;25829;50.228;18.936;2022-12-18T00:10:27;37.07;;;16.90;;
40116;SDS011;25829;50.228;18.936;2022-12-18T00:13:28;30.77;;;16.77;;
40116;SDS011;25829;50.228;18.936;2022-12-18T00:16:29;29.43;;;15.53;;
40116;SDS011;25829;50.228;18.936;2022-12-18T00:19:33;31.13;;;14.67;;
40116;SDS011;25829;50.228;18.936;2022-12-18T00:22:33;29.20;;;15.43;;
40116;SDS011;25829;50.228;18.936;2022-12-18T00:25:35;36.73;;;17.37;;
40116;SDS011;25829;50.228;18.936;2022-12-18T00:28:36;32.73;;;14.77;;
40116;SDS011;25829;50.228;18.936;2022-12-18T00:31:37;27.10;;;15.10;;
40116;SDS011;25829;50.228;18.936;2022-12-18T00:34:38;32.73;;;16.20;;
40116;SDS011;25829;50.228;18.936;2022-12-18T00:37:39;34.50;;;16.93;;
40116;SDS011;25829;50.228;18.936;2022-12-18T00:40:39;29.50;;;15.80;;
40116;SDS011;25829;50.228;18.936;2022-12-18T00:43:41;26.73;;;15.90;;
40116;SDS011;25829;50.228;18.936;2022-12-18T00:46:42;32.70;;;15.67;;
40116;SDS011;25829;50.228;18.936;2022-12-18T00:49:43;33.63;;;17.90;;
40116;SDS011;25829;50.228;18.936;2022-12-18T00:52:44;39.37;;;19.10;;
40116;SDS011;25829;50.228;18.936;2022-12-18T00:55:45;38.03;;;17.87;;
40116;SDS011;25829;50.228;18.936;2022-12-18T00:58:46;38.40;;;19.57;;
40116;SDS011;25829;50.228;18.936;2022-12-18T01:01:47;32.17;;;17.67;;
40116;SDS011;25829;50.228;18.936;2022-12-18T01:04:49;38.07;;;20.27;;
40116;SDS011;25829;50.228;18.936;2022-12-18T01:07:53;49.93;;;20.87;;
40116;SDS011;25829;50.228;18.936;2022-12-18T01:10:56;42.30;;;20.47;;
40116;SDS011;25829;50.228;18.936;2022-12-18T01:13:57;46.63;;;19.87;;
40116;SDS011;25829;50.228;18.936;2022-12-18T01:17:00;42.23;;;20.73;;
40116;SDS011;25829;50.228;18.936;2022-12-18T01:20:05;35.00;;;17.57;;
40116;SDS011;25829;50.228;18.936;2022-12-18T01:23:07;38.90;;;19.87;;
40116;SDS011;25829;50.228;18.936;2022-12-18T01:26:09;41.13;;;19.53;;
40116;SDS011;25829;50.228;18.936;2022-12-18T01:29:12;42.67;;;19.43;;
40116;SDS011;25829;50.228;18.936;2022-12-18T01:32:13;38.80;;;18.50;;
40116;SDS011;25829;50.228;18.936;2022-12-18T01:35:15;38.60;;;19.17;;
40116;SDS011;25829;50.228;18.936;2022-12-18T01:38:15;34.63;;;18.23;;
40116;SDS011;25829;50.228;18.936;2022-12-18T01:41:17;32.13;;;17.00;;
40116;SDS011;25829;50.228;18.936;2022-12-18T01:48:06;34.30;;;18.37;;
40116;SDS011;25829;50.228;18.936;2022-12-18T01:51:10;42.80;;;17.90;;
40116;SDS011;25829;50.228;18.936;2022-12-18T01:54:12;39.40;;;18.27;;
40116;SDS011;25829;50.228;18.936;2022-12-18T01:57:13;36.57;;;18.33;;
40116;SDS011;25829;50.228;18.936;2022-12-18T02:00:15;40.93;;;18.67;;
40116;SDS011;25829;50.228;18.936;2022-12-18T02:03:20;50.70;;;21.37;;
40116;SDS011;25829;50.228;18.936;2022-12-18T02:09:23;38.43;;;18.90;;
40116;SDS011;25829;50.228;18.936;2022-12-18T02:12:46;36.53;;;16.70;;
40116;SDS011;25829;50.228;18.936;2022-12-18T02:15:56;34.80;;;17.50;;
40116;SDS011;25829;50.228;18.936;2022-12-18T02:18:58;36.30;;;18.30;;
40116;SDS011;25829;50.228;18.936;2022-12-18T02:29:23;40.17;;;21.30;;
40116;SDS011;25829;50.228;18.936;2022-12-18T02:32:30;40.50;;;20.27;;
40116;SDS011;25829;50.228;18.936;2022-12-18T02:35:36;42.40;;;17.80;;
40116;SDS011;25829;50.228;18.936;2022-12-18T02:38:39;41.60;;;21.63;;
40116;SDS011;25829;50.228;18.936;2022-12-18T02:41:45;45.53;;;20.27;;
40116;SDS011;25829;50.228;18.936;2022-12-18T02:44:49;40.77;;;20.30;;
40116;SDS011;25829;50.228;18.936;2022-12-18T02:47:54;39.10;;;19.53;;
40116;SDS011;25829;50.228;18.936;2022-12-18T02:51:03;35.27;;;18.47;;
40116;SDS011;25829;50.228;18.936;2022-12-18T02:54:09;45.37;;;21.00;;
40116;SDS011;25829;50.228;18.936;2022-12-18T03:03:41;42.17;;;20.63;;
40116;SDS011;25829;50.228;18.936;2022-12-18T03:06:48;37.50;;;19.97;;
40116;SDS011;25829;50.228;18.936;2022-12-18T03:09:51;31.07;;;16.50;;
40116;SDS011;25829;50.228;18.936;2022-12-18T03:13:05;40.20;;;18.30;;
40116;SDS011;25829;50.228;18.936;2022-12-18T03:16:10;31.10;;;17.67;;
40116;SDS011;25829;50.228;18.936;2022-12-18T03:19:15;35.50;;;17.13;;
40116;SDS011;25829;50.228;18.936;2022-12-18T03:22:23;39.83;;;20.03;;
40116;SDS011;25829;50.228;18.936;2022-12-18T03:25:27;37.67;;;19.33;;
40116;SDS011;25829;50.228;18.936;2022-12-18T03:28:30;40.77;;;21.47;;
40116;SDS011;25829;50.228;18.936;2022-12-18T03:31:39;42.73;;;20.27;;
40116;SDS011;25829;50.228;18.936;2022-12-18T03:34:43;43.23;;;20.20;;
40116;SDS011;25829;50.228;18.936;2022-12-18T03:37:49;44.77;;;20.33;;
40116;SDS011;25829;50.228;18.936;2022-12-18T03:44:08;46.27;;;19.77;;
40116;SDS011;25829;50.228;18.936;2022-12-18T03:47:21;37.57;;;17.90;;
40116;SDS011;25829;50.228;18.936;2022-12-18T03:53:55;38.17;;;19.47;;
40116;SDS011;25829;50.228;18.936;2022-12-18T03:57:05;34.80;;;17.90;;
40116;SDS011;25829;50.228;18.936;2022-12-18T04:00:15;34.50;;;19.13;;
40116;SDS011;25829;50.228;18.936;2022-12-18T04:03:33;34.03;;;18.33;;
40116;SDS011;25829;50.228;18.936;2022-12-18T04:06:36;38.00;;;18.20;;
40116;SDS011;25829;50.228;18.936;2022-12-18T04:09:38;37.20;;;17.50;;
40116;SDS011;25829;50.228;18.936;2022-12-18T04:12:42;38.07;;;19.27;;
40116;SDS011;25829;50.228;18.936;2022-12-18T04:15:45;36.83;;;19.17;;
40116;SDS011;25829;50.228;18.936;2022-12-18T04:18:49;40.63;;;19.77;;
40116;SDS011;25829;50.228;18.936;2022-12-18T04:21:50;39.43;;;19.07;;
40116;SDS011;25829;50.228;18.936;2022-12-18T04:24:51;39.93;;;19.57;;
40116;SDS011;25829;50.228;18.936;2022-12-18T04:28:01;39.53;;;19.80;;
40116;SDS011;25829;50.228;18.936;2022-12-18T04:31:02;41.37;;;19.80;;
40116;SDS011;25829;50.228;18.936;2022-12-18T04:34:03;42.10;;;19.87;;
40116;SDS011;25829;50.228;18.936;2022-12-18T04:37:10;41.63;;;19.83;;
40116;SDS011;25829;50.228;18.936;2022-12-18T04:40:12;39.93;;;20.47;;
40116;SDS011;25829;50.228;18.936;2022-12-18T04:43:17;36.33;;;19.10;;
40116;SDS011;25829;50.228;18.936;2022-12-18T04:46:18;41.23;;;19.13;;
40116;SDS011;25829;50.228;18.936;2022-12-18T04:49:18;41.57;;;19.73;;
40116;SDS011;25829;50.228;18.936;2022-12-18T04:52:19;39.93;;;21.77;;
40116;SDS011;25829;50.228;18.936;2022-12-18T04:55:20;41.63;;;20.90;;
40116;SDS011;25829;50.228;18.936;2022-12-18T04:58:21;41.80;;;21.50;;
40116;SDS011;25829;50.228;18.936;2022-12-18T05:01:22;52.83;;;24.03;;
40116;SDS011;25829;50.228;18.936;2022-12-18T05:04:23;46.43;;;21.53;;
40116;SDS011;25829;50.228;18.936;2022-12-18T05:07:24;41.53;;;20.63;;
40116;SDS011;25829;50.228;18.936;2022-12-18T05:10:25;42.43;;;19.67;;
40116;SDS011;25829;50.228;18.936;2022-12-18T05:13:26;38.43;;;18.70;;
40116;SDS011;25829;50.228;18.936;2022-12-18T05:16:27;46.83;;;21.87;;
40116;SDS011;25829;50.228;18.936;2022-12-18T05:19:27;44.37;;;20.90;;
40116;SDS011;25829;50.228;18.936;2022-12-18T05:22:28;41.93;;;20.63;;
40116;SDS011;25829;50.228;18.936;2022-12-18T05:28:55;36.23;;;19.50;;
40116;SDS011;25829;50.228;18.936;2022-12-18T05:31:56;44.90;;;22.03;;
40116;SDS011;25829;50.228;18.936;2022-12-18T05:34:57;41.70;;;20.23;;
40116;SDS011;25829;50.228;18.936;2022-12-18T05:37:58;43.33;;;20.20;;
40116;SDS011;25829;50.228;18.936;2022-12-18T05:40:59;40.73;;;20.80;;
40116;SDS011;25829;50.228;18.936;2022-12-18T05:43:59;40.17;;;19.83;;
40116;SDS011;25829;50.228;18.936;2022-12-18T05:47:00;40.63;;;20.40;;
40116;SDS011;25829;50.228;18.936;2022-12-18T05:50:01;50.50;;;22.97;;
40116;SDS011;25829;50.228;18.936;2022-12-18T05:53:03;43.27;;;22.50;;
40116;SDS011;25829;50.228;18.936;2022-12-18T05:56:05;45.60;;;22.07;;
40116;SDS011;25829;50.228;18.936;2022-12-18T05:59:08;43.03;;;21.67;;
40116;SDS011;25829;50.228;18.936;2022-12-18T06:02:09;42.00;;;21.03;;
40116;SDS011;25829;50.228;18.936;2022-12-18T06:05:09;41.30;;;21.10;;
40116;SDS011;25829;50.228;18.936;2022-12-18T06:08:11;38.87;;;20.77;;
40116;SDS011;25829;50.228;18.936;2022-12-18T06:11:15;43.70;;;21.83;;
40116;SDS011;25829;50.228;18.936;2022-12-18T06:14:18;48.20;;;22.27;;
40116;SDS011;25829;50.228;18.936;2022-12-18T06:17:18;46.83;;;24.07;;
40116;SDS011;25829;50.228;18.936;2022-12-18T06:20:19;47.33;;;22.57;;
40116;SDS011;25829;50.228;18.936;2022-12-18T06:23:21;52.97;;;23.07;;
40116;SDS011;25829;50.228;18.936;2022-12-18T06:26:22;44.10;;;21.77;;
40116;SDS011;25829;50.228;18.936;2022-12-18T06:29:23;46.23;;;21.70;;
40116;SDS011;25829;50.228;18.936;2022-12-18T06:32:23;47.03;;;22.93;;
40116;SDS011;25829;50.228;18.936;2022-12-18T06:35:24;49.47;;;23.43;;
40116;SDS011;25829;50.228;18.936;2022-12-18T06:38:25;46.27;;;22.23;;
40116;SDS011;25829;50.228;18.936;2022-12-18T06:41:26;54.33;;;25.90;;
40116;SDS011;25829;50.228;18.936;2022-12-18T06:44:27;46.67;;;23.33;;
40116;SDS011;25829;50.228;18.936;2022-12-18T06:47:27;66.23;;;27.00;;
40116;SDS011;25829;50.228;18.936;2022-12-18T06:50:29;49.43;;;24.00;;
40116;SDS011;25829;50.228;18.936;2022-12-18T06:53:29;44.80;;;22.87;;
40116;SDS011;25829;50.228;18.936;2022-12-18T06:56:31;45.43;;;22.13;;
40116;SDS011;25829;50.228;18.936;2022-12-18T06:59:32;45.10;;;21.57;;
40116;SDS011;25829;50.228;18.936;2022-12-18T07:02:34;44.10;;;22.77;;
40116;SDS011;25829;50.228;18.936;2022-12-18T07:05:34;56.67;;;24.90;;
40116;SDS011;25829;50.228;18.936;2022-12-18T07:08:46;60.63;;;26.37;;
40116;SDS011;25829;50.228;18.936;2022-12-18T07:11:48;52.73;;;26.23;;
40116;SDS011;25829;50.228;18.936;2022-12-18T07:14:48;48.23;;;24.50;;
40116;SDS011;25829;50.228;18.936;2022-12-18T07:17:49;58.03;;;25.63;;
40116;SDS011;25829;50.228;18.936;2022-12-18T07:20:50;57.03;;;27.00;;
40116;SDS011;25829;50.228;18.936;2022-12-18T07:23:50;64.93;;;28.37;;
40116;SDS011;25829;50.228;18.936;2022-12-18T07:26:51;66.03;;;29.50;;
40116;SDS011;25829;50.228;18.936;2022-12-18T07:29:52;66.43;;;28.33;;
40116;SDS011;25829;50.228;18.936;2022-12-18T07:32:53;61.53;;;28.23;;
40116;SDS011;25829;50.228;18.936;2022-12-18T07:35:53;64.37;;;29.77;;
40116;SDS011;25829;50.228;18.936;2022-12-18T07:38:55;63.30;;;29.47;;
40116;SDS011;25829;50.228;18.936;2022-12-18T07:41:56;64.33;;;29.67;;
40116;SDS011;25829;50.228;18.936;2022-12-18T07:45:15;54.53;;;27.50;;
40116;SDS011;25829;50.228;18.936;2022-12-18T07:48:18;66.63;;;29.83;;
40116;SDS011;25829;50.228;18.936;2022-12-18T07:51:28;65.40;;;29.03;;
40116;SDS011;25829;50.228;18.936;2022-12-18T07:54:38;61.30;;;29.63;;
40116;SDS011;25829;50.228;18.936;2022-12-18T07:57:40;64.77;;;29.57;;
40116;SDS011;25829;50.228;18.936;2022-12-18T08:00:41;66.17;;;29.93;;
40116;SDS011;25829;50.228;18.936;2022-12-18T08:03:41;62.63;;;29.80;;
40116;SDS011;25829;50.228;18.936;2022-12-18T08:06:42;68.13;;;31.37;;
40116;SDS011;25829;50.228;18.936;2022-12-18T08:09:43;73.47;;;31.83;;
40116;SDS011;25829;50.228;18.936;2022-12-18T08:12:44;69.77;;;31.20;;
40116;SDS011;25829;50.228;18.936;2022-12-18T08:15:45;58.80;;;28.67;;
40116;SDS011;25829;50.228;18.936;2022-12-18T08:18:46;68.67;;;29.20;;
40116;SDS011;25829;50.228;18.936;2022-12-18T08:21:47;70.37;;;30.83;;
40116;SDS011;25829;50.228;18.936;2022-12-18T08:24:48;63.10;;;30.73;;
40116;SDS011;25829;50.228;18.936;2022-12-18T08:27:49;79.27;;;35.57;;
40116;SDS011;25829;50.228;18.936;2022-12-18T08:30:53;77.77;;;35.97;;
40116;SDS011;25829;50.228;18.936;2022-12-18T08:33:54;76.87;;;30.83;;
40116;SDS011;25829;50.228;18.936;2022-12-18T08:36:55;60.93;;;28.73;;
40116;SDS011;25829;50.228;18.936;2022-12-18T08:39:56;71.83;;;29.37;;
40116;SDS011;25829;50.228;18.936;2022-12-18T08:42:57;67.93;;;29.97;;
40116;SDS011;25829;50.228;18.936;2022-12-18T08:46:16;66.93;;;29.70;;
40116;SDS011;25829;50.228;18.936;2022-12-18T08:49:21;67.57;;;29.23;;
40116;SDS011;25829;50.228;18.936;2022-12-18T08:52:21;59.47;;;27.17;;
40116;SDS011;25829;50.228;18.936;2022-12-18T08:55:28;57.30;;;26.67;;
40116;SDS011;25829;50.228;18.936;2022-12-18T08:58:29;55.70;;;26.77;;
40116;SDS011;25829;50.228;18.936;2022-12-18T09:01:30;52.33;;;25.13;;
40116;SDS011;25829;50.228;18.936;2022-12-18T09:04:36;54.53;;;25.27;;
40116;SDS011;25829;50.228;18.936;2022-12-18T09:07:39;52.80;;;24.83;;
40116;SDS011;25829;50.228;18.936;2022-12-18T09:10:47;57.37;;;24.23;;
40116;SDS011;25829;50.228;18.936;2022-12-18T09:13:55;51.13;;;24.73;;
40116;SDS011;25829;50.228;18.936;2022-12-18T09:16:56;46.23;;;22.40;;
40116;SDS011;25829;50.228;18.936;2022-12-18T09:20:00;56.90;;;25.40;;
40116;SDS011;25829;50.228;18.936;2022-12-18T09:23:03;52.23;;;24.93;;
40116;SDS011;25829;50.228;18.936;2022-12-18T09:26:05;48.93;;;23.07;;
40116;SDS011;25829;50.228;18.936;2022-12-18T09:29:07;58.47;;;25.57;;
40116;SDS011;25829;50.228;18.936;2022-12-18T09:32:07;48.83;;;23.73;;
40116;SDS011;25829;50.228;18.936;2022-12-18T09:35:08;47.13;;;22.53;;
40116;SDS011;25829;50.228;18.936;2022-12-18T09:38:16;45.17;;;22.60;;
40116;SDS011;25829;50.228;18.936;2022-12-18T09:44:54;43.70;;;24.13;;
40116;SDS011;25829;50.228;18.936;2022-12-18T09:47:55;44.63;;;23.53;;
40116;SDS011;25829;50.228;18.936;2022-12-18T09:51:02;50.03;;;25.90;;
40116;SDS011;25829;50.228;18.936;2022-12-18T09:54:20;51.83;;;25.27;;
40116;SDS011;25829;50.228;18.936;2022-12-18T09:57:28;44.27;;;22.33;;
40116;SDS011;25829;50.228;18.936;2022-12-18T10:00:31;52.43;;;24.57;;
40116;SDS011;25829;50.228;18.936;2022-12-18T10:03:32;45.63;;;22.57;;
40116;SDS011;25829;50.228;18.936;2022-12-18T10:07:07;40.77;;;20.57;;
40116;SDS011;25829;50.228;18.936;2022-12-18T10:10:14;38.13;;;19.87;;
40116;SDS011;25829;50.228;18.936;2022-12-18T10:13:49;38.70;;;19.30;;
40116;SDS011;25829;50.228;18.936;2022-12-18T10:23:39;39.77;;;19.53;;
40116;SDS011;25829;50.228;18.936;2022-12-18T10:27:09;39.57;;;18.70;;
40116;SDS011;25829;50.228;18.936;2022-12-18T10:30:16;37.03;;;18.70;;
40116;SDS011;25829;50.228;18.936;2022-12-18T10:33:20;38.37;;;21.10;;
40116;SDS011;25829;50.228;18.936;2022-12-18T10:36:23;39.23;;;20.60;;
40116;SDS011;25829;50.228;18.936;2022-12-18T10:39:25;43.87;;;20.07;;
40116;SDS011;25829;50.228;18.936;2022-12-18T10:42:26;38.93;;;20.07;;
40116;SDS011;25829;50.228;18.936;2022-12-18T10:45:27;44.07;;;20.23;;
40116;SDS011;25829;50.228;18.936;2022-12-18T10:48:28;45.00;;;21.87;;
40116;SDS011;25829;50.228;18.936;2022-12-18T10:51:31;43.93;;;23.00;;
40116;SDS011;25829;50.228;18.936;2022-12-18T10:54:34;41.40;;;22.23;;
40116;SDS011;25829;50.228;18.936;2022-12-18T10:57:38;44.30;;;23.63;;
40116;SDS011;25829;50.228;18.936;2022-12-18T11:00:40;42.30;;;21.17;;
40116;SDS011;25829;50.228;18.936;2022-12-18T11:03:45;45.50;;;22.00;;
40116;SDS011;25829;50.228;18.936;2022-12-18T11:06:52;39.87;;;20.37;;
40116;SDS011;25829;50.228;18.936;2022-12-18T11:10:02;44.87;;;22.07;;
40116;SDS011;25829;50.228;18.936;2022-12-18T11:13:15;48.17;;;22.27;;
40116;SDS011;25829;50.228;18.936;2022-12-18T11:16:19;43.03;;;20.80;;
40116;SDS011;25829;50.228;18.936;2022-12-18T11:22:57;36.50;;;16.27;;
40116;SDS011;25829;50.228;18.936;2022-12-18T11:26:03;31.47;;;15.73;;
40116;SDS011;25829;50.228;18.936;2022-12-18T11:29:10;30.57;;;15.70;;
40116;SDS011;25829;50.228;18.936;2022-12-18T11:35:51;46.20;;;21.27;;
40116;SDS011;25829;50.228;18.936;2022-12-18T11:38:55;36.77;;;19.37;;
40116;SDS011;25829;50.228;18.936;2022-12-18T11:45:25;36.17;;;15.77;;
40116;SDS011;25829;50.228;18.936;2022-12-18T11:48:30;29.13;;;14.80;;
40116;SDS011;25829;50.228;18.936;2022-12-18T11:51:36;31.33;;;15.73;;
40116;SDS011;25829;50.228;18.936;2022-12-18T11:54:42;24.77;;;15.17;;
40116;SDS011;25829;50.228;18.936;2022-12-18T11:58:04;27.03;;;13.43;;
40116;SDS011;25829;50.228;18.936;2022-12-18T12:11:07;37.73;;;16.87;;
40116;SDS011;25829;50.228;18.936;2022-12-18T12:27:53;35.67;;;16.03;;
40116;SDS011;25829;50.228;18.936;2022-12-18T12:34:34;28.67;;;15.83;;
40116;SDS011;25829;50.228;18.936;2022-12-18T12:41:09;23.00;;;13.20;;
40116;SDS011;25829;50.228;18.936;2022-12-18T12:44:51;24.93;;;12.50;;
40116;SDS011;25829;50.228;18.936;2022-12-18T12:47:54;36.43;;;24.13;;
40116;SDS011;25829;50.228;18.936;2022-12-18T12:50:58;27.97;;;17.70;;
40116;SDS011;25829;50.228;18.936;2022-12-18T12:54:04;27.20;;;15.07;;
40116;SDS011;25829;50.228;18.936;2022-12-18T12:57:12;28.33;;;14.67;;
40116;SDS011;25829;50.228;18.936;2022-12-18T13:00:20;27.40;;;16.63;;
40116;SDS011;25829;50.228;18.936;2022-12-18T13:06:51;37.13;;;17.90;;
40116;SDS011;25829;50.228;18.936;2022-12-18T13:13:22;34.93;;;16.97;;
40116;SDS011;25829;50.228;18.936;2022-12-18T13:16:24;36.77;;;18.50;;
40116;SDS011;25829;50.228;18.936;2022-12-18T13:19:26;42.73;;;21.60;;
40116;SDS011;25829;50.228;18.936;2022-12-18T13:22:31;32.37;;;15.57;;
40116;SDS011;25829;50.228;18.936;2022-12-18T13:25:36;44.97;;;22.67;;
40116;SDS011;25829;50.228;18.936;2022-12-18T13:34:48;39.57;;;17.90;;
40116;SDS011;25829;50.228;18.936;2022-12-18T13:38:21;30.60;;;17.23;;
40116;SDS011;25829;50.228;18.936;2022-12-18T13:41:31;34.40;;;18.43;;
40116;SDS011;25829;50.228;18.936;2022-12-18T13:44:33;42.73;;;18.43;;
40116;SDS011;25829;50.228;18.936;2022-12-18T13:47:36;35.23;;;17.07;;
40116;SDS011;25829;50.228;18.936;2022-12-18T13:50:38;31.83;;;16.87;;
40116;SDS011;25829;50.228;18.936;2022-12-18T13:53:43;35.57;;;16.73;;
40116;SDS011;25829;50.228;18.936;2022-12-18T13:56:48;31.23;;;15.60;;
40116;SDS011;25829;50.228;18.936;2022-12-18T13:59:49;36.20;;;16.37;;
40116;SDS011;25829;50.228;18.936;2022-12-18T14:02:50;48.17;;;27.77;;
40116;SDS011;25829;50.228;18.936;2022-12-18T14:06:07;43.77;;;21.63;;
40116;SDS011;25829;50.228;18.936;2022-12-18T14:09:10;48.00;;;20.20;;
40116;SDS011;25829;50.228;18.936;2022-12-18T14:12:15;64.10;;;30.87;;
40116;SDS011;25829;50.228;18.936;2022-12-18T14:15:53;68.70;;;33.80;;
40116;SDS011;25829;50.228;18.936;2022-12-18T14:18:56;43.07;;;21.23;;
40116;SDS011;25829;50.228;18.936;2022-12-18T14:21:58;40.30;;;19.67;;
40116;SDS011;25829;50.228;18.936;2022-12-18T14:25:10;49.43;;;25.47;;
40116;SDS011;25829;50.228;18.936;2022-12-18T14:28:15;38.87;;;19.73;;
40116;SDS011;25829;50.228;18.936;2022-12-18T14:31:21;36.77;;;20.77;;
40116;SDS011;25829;50.228;18.936;2022-12-18T14:34:26;43.67;;;24.60;;
40116;SDS011;25829;50.228;18.936;2022-12-18T14:37:26;46.37;;;24.03;;
40116;SDS011;25829;50.228;18.936;2022-12-18T14:40:27;68.87;;;30.27;;
40116;SDS011;25829;50.228;18.936;2022-12-18T14:43:30;52.30;;;28.60;;
40116;SDS011;25829;50.228;18.936;2022-12-18T14:49:38;46.37;;;23.00;;
40116;SDS011;25829;50.228;18.936;2022-12-18T14:52:42;51.83;;;24.87;;
40116;SDS011;25829;50.228;18.936;2022-12-18T14:55:45;49.70;;;24.07;;
40116;SDS011;25829;50.228;18.936;2022-12-18T14:58:52;49.13;;;25.63;;
40116;SDS011;25829;50.228;18.936;2022-12-18T15:02:03;50.47;;;25.57;;
40116;SDS011;25829;50.228;18.936;2022-12-18T15:05:27;57.67;;;26.57;;
40116;SDS011;25829;50.228;18.936;2022-12-18T15:08:31;54.50;;;26.63;;
40116;SDS011;25829;50.228;18.936;2022-12-18T15:14:40;48.30;;;25.47;;
40116;SDS011;25829;50.228;18.936;2022-12-18T15:17:41;52.17;;;28.07;;
40116;SDS011;25829;50.228;18.936;2022-12-18T15:20:46;53.33;;;29.03;;
40116;SDS011;25829;50.228;18.936;2022-12-18T15:23:50;87.80;;;44.27;;
40116;SDS011;25829;50.228;18.936;2022-12-18T15:26:52;71.17;;;34.20;;
40116;SDS011;25829;50.228;18.936;2022-12-18T15:33:25;82.60;;;40.43;;
40116;SDS011;25829;50.228;18.936;2022-12-18T15:36:29;85.07;;;41.73;;
40116;SDS011;25829;50.228;18.936;2022-12-18T15:39:30;81.13;;;38.07;;
40116;SDS011;25829;50.228;18.936;2022-12-18T15:42:31;67.93;;;33.30;;
40116;SDS011;25829;50.228;18.936;2022-12-18T15:45:50;54.40;;;29.43;;
40116;SDS011;25829;50.228;18.936;2022-12-18T15:48:52;58.30;;;28.50;;
40116;SDS011;25829;50.228;18.936;2022-12-18T15:51:54;51.23;;;27.63;;
40116;SDS011;25829;50.228;18.936;2022-12-18T15:54:58;46.20;;;25.10;;
40116;SDS011;25829;50.228;18.936;2022-12-18T15:58:17;60.67;;;30.80;;
40116;SDS011;25829;50.228;18.936;2022-12-18T16:01:20;66.30;;;31.57;;
40116;SDS011;25829;50.228;18.936;2022-12-18T16:04:29;66.33;;;30.23;;
40116;SDS011;25829;50.228;18.936;2022-12-18T16:07:30;67.80;;;32.97;;
40116;SDS011;25829;50.228;18.936;2022-12-18T16:10:30;73.03;;;35.00;;
40116;SDS011;25829;50.228;18.936;2022-12-18T16:13:31;75.53;;;34.23;;
40116;SDS011;25829;50.228;18.936;2022-12-18T16:16:32;56.17;;;27.87;;
40116;SDS011;25829;50.228;18.936;2022-12-18T16:19:33;75.27;;;33.27;;
40116;SDS011;25829;50.228;18.936;2022-12-18T16:22:33;87.93;;;42.40;;
40116;SDS011;25829;50.228;18.936;2022-12-18T16:25:34;94.57;;;46.23;;
40116;SDS011;25829;50.228;18.936;2022-12-18T16:28:35;62.77;;;32.77;;
40116;SDS011;25829;50.228;18.936;2022-12-18T16:31:36;64.63;;;35.57;;
40116;SDS011;25829;50.228;18.936;2022-12-18T16:34:37;81.97;;;40.23;;
40116;SDS011;25829;50.228;18.936;2022-12-18T16:37:39;78.93;;;37.40;;
40116;SDS011;25829;50.228;18.936;2022-12-18T16:40:40;85.23;;;38.47;;
40116;SDS011;25829;50.228;18.936;2022-12-18T16:44:02;92.33;;;42.77;;
40116;SDS011;25829;50.228;18.936;2022-12-18T16:47:03;108.03;;;46.70;;
40116;SDS011;25829;50.228;18.936;2022-12-18T16:50:04;95.57;;;42.77;;
40116;SDS011;25829;50.228;18.936;2022-12-18T16:53:06;102.90;;;48.73;;
40116;SDS011;25829;50.228;18.936;2022-12-18T16:56:06;110.97;;;49.33;;
40116;SDS011;25829;50.228;18.936;2022-12-18T16:59:09;110.00;;;51.20;;
40116;SDS011;25829;50.228;18.936;2022-12-18T17:02:15;113.73;;;51.83;;
40116;SDS011;25829;50.228;18.936;2022-12-18T17:05:17;130.50;;;54.30;;
40116;SDS011;25829;50.228;18.936;2022-12-18T17:08:18;120.37;;;55.90;;
40116;SDS011;25829;50.228;18.936;2022-12-18T17:11:19;119.97;;;59.00;;
40116;SDS011;25829;50.228;18.936;2022-12-18T17:14:20;103.63;;;49.67;;
40116;SDS011;25829;50.228;18.936;2022-12-18T17:17:23;101.63;;;47.93;;
40116;SDS011;25829;50.228;18.936;2022-12-18T17:20:24;99.57;;;48.53;;
40116;SDS011;25829;50.228;18.936;2022-12-18T17:23:24;131.07;;;64.20;;
40116;SDS011;25829;50.228;18.936;2022-12-18T17:26:26;123.97;;;61.40;;
40116;SDS011;25829;50.228;18.936;2022-12-18T17:29:27;115.30;;;57.23;;
40116;SDS011;25829;50.228;18.936;2022-12-18T17:32:28;96.03;;;48.13;;
40116;SDS011;25829;50.228;18.936;2022-12-18T17:35:29;96.27;;;47.43;;
40116;SDS011;25829;50.228;18.936;2022-12-18T17:38:30;95.43;;;49.00;;
40116;SDS011;25829;50.228;18.936;2022-12-18T17:41:31;101.90;;;45.97;;
40116;SDS011;25829;50.228;18.936;2022-12-18T17:44:32;123.57;;;58.27;;
40116;SDS011;25829;50.228;18.936;2022-12-18T17:47:33;126.63;;;57.67;;
40116;SDS011;25829;50.228;18.936;2022-12-18T17:50:34;123.13;;;57.77;;
40116;SDS011;25829;50.228;18.936;2022-12-18T17:53:36;144.50;;;63.40;;
40116;SDS011;25829;50.228;18.936;2022-12-18T17:56:41;129.10;;;62.33;;
40116;SDS011;25829;50.228;18.936;2022-12-18T17:59:42;135.03;;;60.97;;
40116;SDS011;25829;50.228;18.936;2022-12-18T18:02:42;123.50;;;59.87;;
40116;SDS011;25829;50.228;18.936;2022-12-18T18:05:43;102.47;;;49.47;;
40116;SDS011;25829;50.228;18.936;2022-12-18T18:08:44;91.07;;;46.27;;
40116;SDS011;25829;50.228;18.936;2022-12-18T18:11:45;112.13;;;54.90;;
40116;SDS011;25829;50.228;18.936;2022-12-18T18:15:04;72.87;;;35.03;;
40116;SDS011;25829;50.228;18.936;2022-12-18T18:18:05;65.57;;;31.93;;
40116;SDS011;25829;50.228;18.936;2022-12-18T18:21:07;62.77;;;31.37;;
40116;SDS011;25829;50.228;18.936;2022-12-18T18:24:08;104.77;;;45.33;;
40116;SDS011;25829;50.228;18.936;2022-12-18T18:27:11;103.57;;;44.93;;
40116;SDS011;25829;50.228;18.936;2022-12-18T18:30:12;100.70;;;47.70;;
40116;SDS011;25829;50.228;18.936;2022-12-18T18:33:13;88.00;;;46.67;;
40116;SDS011;25829;50.228;18.936;2022-12-18T18:36:14;98.73;;;47.97;;
40116;SDS011;25829;50.228;18.936;2022-12-18T18:39:14;114.90;;;49.07;;
40116;SDS011;25829;50.228;18.936;2022-12-18T18:42:15;89.30;;;44.30;;
40116;SDS011;25829;50.228;18.936;2022-12-18T18:45:16;94.83;;;44.73;;
40116;SDS011;25829;50.228;18.936;2022-12-18T18:48:17;83.27;;;40.83;;
40116;SDS011;25829;50.228;18.936;2022-12-18T18:51:18;113.73;;;48.33;;
40116;SDS011;25829;50.228;18.936;2022-12-18T18:54:19;110.37;;;47.00;;
40116;SDS011;25829;50.228;18.936;2022-12-18T18:57:20;87.23;;;41.90;;
40116;SDS011;25829;50.228;18.936;2022-12-18T19:00:21;94.40;;;42.23;;
40116;SDS011;25829;50.228;18.936;2022-12-18T19:03:22;83.10;;;39.53;;
40116;SDS011;25829;50.228;18.936;2022-12-18T19:06:25;83.10;;;38.90;;
40116;SDS011;25829;50.228;18.936;2022-12-18T19:09:27;86.30;;;41.43;;
40116;SDS011;25829;50.228;18.936;2022-12-18T19:12:28;89.20;;;42.47;;
40116;SDS011;25829;50.228;18.936;2022-12-18T19:15:47;75.93;;;37.17;;
40116;SDS011;25829;50.228;18.936;2022-12-18T19:18:50;79.43;;;40.37;;
40116;SDS011;25829;50.228;18.936;2022-12-18T19:21:51;82.27;;;41.80;;
40116;SDS011;25829;50.228;18.936;2022-12-18T19:24:52;92.17;;;43.57;;